createdAt,value
2019-03-24T00:00:57.534Z,64.70
2019-03-24T00:03:26.024Z,67.67
2019-03-24T00:05:54.547Z,69.00
2019-03-24T00:08:24.102Z,65.28
2019-03-24T00:10:52.608Z,65.57
2019-03-24T00:13:21.105Z,69.22
2019-03-24T00:15:49.623Z,70.97
2019-03-24T00:18:18.108Z,69.72
2019-03-24T00:20:46.863Z,69.70
2019-03-24T00:23:15.346Z,69.47
2019-03-24T00:25:43.835Z,67.75
2019-03-24T00:28:12.353Z,72.47
2019-03-24T00:30:40.841Z,67.25
2019-03-24T00:33:09.344Z,64.00
2019-03-24T00:35:39.158Z,64.87
2019-03-24T00:38:07.672Z,61.15
2019-03-24T00:40:36.180Z,59.95
2019-03-24T00:43:04.922Z,60.17
2019-03-24T00:45:37.010Z,63.58
2019-03-24T00:48:03.679Z,62.43
2019-03-24T00:50:32.165Z,59.27
2019-03-24T00:53:00.713Z,60.67
2019-03-24T00:55:29.200Z,58.42
2019-03-24T00:57:57.851Z,54.65
2019-03-24T01:00:43.928Z,55.20
2019-03-24T01:03:12.485Z,52.88
2019-03-24T01:05:41.247Z,54.40
2019-03-24T01:08:09.964Z,54.98
2019-03-24T01:10:38.596Z,56.88
2019-03-24T01:13:07.147Z,51.83
2019-03-24T01:15:35.729Z,55.60
2019-03-24T01:18:04.456Z,52.80
2019-03-24T01:20:32.973Z,50.52
2019-03-24T01:23:01.465Z,53.63
2019-03-24T01:25:29.965Z,53.40
2019-03-24T01:27:58.444Z,56.77
2019-03-24T01:30:27.035Z,60.35
2019-03-24T01:32:55.549Z,60.08
2019-03-24T01:35:24.032Z,56.00
2019-03-24T01:37:52.524Z,62.25
2019-03-24T01:40:21.006Z,56.45
2019-03-24T01:42:49.498Z,56.40
2019-03-24T01:45:18.012Z,57.00
2019-03-24T01:47:46.491Z,56.08
2019-03-24T01:50:15.140Z,55.95
2019-03-24T01:52:43.724Z,58.00
2019-03-24T01:55:12.410Z,54.77
2019-03-24T01:57:40.889Z,53.33
2019-03-24T02:00:10.040Z,53.23
2019-03-24T02:02:38.532Z,61.13
2019-03-24T02:05:08.025Z,55.50
2019-03-24T02:07:36.625Z,56.75
2019-03-24T02:10:08.147Z,60.67
2019-03-24T02:12:36.743Z,56.02
2019-03-24T02:15:07.334Z,55.83
2019-03-24T02:17:35.885Z,51.65
2019-03-24T02:20:06.134Z,51.35
2019-03-24T02:22:34.616Z,59.50
2019-03-24T02:25:03.200Z,54.13
2019-03-24T02:27:31.696Z,52.70
2019-03-24T02:30:00.425Z,55.23
2019-03-24T02:32:29.246Z,54.95
2019-03-24T02:34:57.730Z,54.70
2019-03-24T02:37:26.229Z,52.78
2019-03-24T02:39:54.811Z,48.92
2019-03-24T02:42:23.293Z,51.75
2019-03-24T02:44:51.773Z,50.25
2019-03-24T02:47:20.272Z,48.23
2019-03-24T02:49:48.745Z,48.58
2019-03-24T02:52:17.265Z,49.30
2019-03-24T02:54:45.758Z,47.38
2019-03-24T02:57:14.262Z,47.38
2019-03-24T02:59:42.788Z,47.83
2019-03-24T03:02:11.341Z,47.17
2019-03-24T03:04:39.822Z,47.23
2019-03-24T03:07:08.322Z,47.90
2019-03-24T03:09:36.822Z,49.23
2019-03-24T03:12:05.456Z,47.30
2019-03-24T03:14:33.976Z,44.00
2019-03-24T03:17:02.456Z,44.45
2019-03-24T03:19:30.982Z,44.15
2019-03-24T03:21:59.672Z,45.33
2019-03-24T03:24:28.374Z,45.28
2019-03-24T03:26:56.851Z,45.63
2019-03-24T03:29:25.372Z,47.10
2019-03-24T03:31:54.085Z,44.85
2019-03-24T03:34:22.562Z,43.38
2019-03-24T03:36:51.158Z,45.12
2019-03-24T03:39:20.745Z,45.08
2019-03-24T03:41:49.245Z,46.10
2019-03-24T03:44:17.769Z,42.98
2019-03-24T03:46:52.674Z,42.25
2019-03-24T03:49:16.456Z,45.28
2019-03-24T03:51:44.949Z,44.38
2019-03-24T03:54:13.421Z,45.45
2019-03-24T03:56:41.918Z,47.70
2019-03-24T03:59:10.432Z,46.85
2019-03-24T04:01:38.946Z,45.38
2019-03-24T04:04:07.606Z,47.40
2019-03-24T04:06:36.123Z,47.65
2019-03-24T04:09:06.043Z,49.18
2019-03-24T04:11:34.535Z,50.03
2019-03-24T04:14:03.029Z,47.25
2019-03-24T04:16:31.531Z,59.05
2019-03-24T04:19:00.013Z,52.73
2019-03-24T04:21:28.524Z,49.90
2019-03-24T04:23:58.581Z,51.73
2019-03-24T04:26:27.083Z,51.68
2019-03-24T04:28:55.591Z,50.30
2019-03-24T04:31:24.156Z,49.93
2019-03-24T04:33:52.598Z,55.80
2019-03-24T04:36:21.083Z,63.70
2019-03-24T04:38:49.572Z,67.25
2019-03-24T04:41:18.197Z,66.85
2019-03-24T04:43:46.701Z,61.65
2019-03-24T04:46:15.181Z,52.55
2019-03-24T04:48:43.730Z,52.03
2019-03-24T04:51:12.212Z,48.63
2019-03-24T04:53:40.696Z,51.33
2019-03-24T04:56:09.294Z,51.02
2019-03-24T04:58:37.765Z,49.85
2019-03-24T05:01:06.333Z,54.40
2019-03-24T05:03:34.831Z,56.20
2019-03-24T05:06:03.482Z,53.83
2019-03-24T05:08:32.248Z,56.63
2019-03-24T05:11:00.744Z,56.75
2019-03-24T05:13:29.245Z,53.20
2019-03-24T05:15:57.726Z,50.23
2019-03-24T05:18:26.321Z,47.13
2019-03-24T05:20:54.835Z,47.67
2019-03-24T05:23:23.324Z,66.30
2019-03-24T05:25:52.113Z,101.02
2019-03-24T05:28:20.608Z,65.60
2019-03-24T05:30:49.122Z,64.90
2019-03-24T05:33:17.602Z,58.78
2019-03-24T05:35:46.115Z,58.33
2019-03-24T05:38:14.596Z,56.13
2019-03-24T05:40:43.113Z,55.20
2019-03-24T05:43:11.601Z,52.58
2019-03-24T05:45:40.098Z,50.08
2019-03-24T05:48:08.611Z,49.35
2019-03-24T05:50:37.118Z,49.30
2019-03-24T05:53:05.700Z,49.42
2019-03-24T05:55:34.183Z,47.30
2019-03-24T05:58:02.681Z,48.35
2019-03-24T06:00:31.168Z,47.53
2019-03-24T06:02:59.665Z,46.13
2019-03-24T06:05:28.171Z,44.53
2019-03-24T06:07:56.660Z,45.60
2019-03-24T06:10:25.169Z,50.28
2019-03-24T06:12:54.603Z,50.05
2019-03-24T06:15:23.130Z,50.03
2019-03-24T06:17:51.604Z,49.03
2019-03-24T06:20:20.166Z,52.40
2019-03-24T06:22:48.641Z,56.58
2019-03-24T06:25:17.238Z,47.27
2019-03-24T06:27:45.720Z,52.20
2019-03-24T06:30:14.702Z,40.55
2019-03-24T06:32:43.276Z,42.40
2019-03-24T06:35:11.819Z,47.08
2019-03-24T06:37:40.323Z,62.48
2019-03-24T06:40:09.344Z,43.98
2019-03-24T06:42:37.924Z,41.50
2019-03-24T06:45:08.662Z,40.95
2019-03-24T06:47:37.170Z,34.90
2019-03-24T06:50:07.499Z,30.57
2019-03-24T06:52:36.148Z,33.33
2019-03-24T06:55:04.965Z,34.20
2019-03-24T06:57:33.525Z,27.35
2019-03-24T07:00:02.000Z,32.60
2019-03-24T07:02:30.500Z,31.87
2019-03-24T07:04:59.348Z,32.63
2019-03-24T07:07:27.852Z,32.45
2019-03-24T07:09:56.343Z,38.08
2019-03-24T07:12:24.821Z,37.42
2019-03-24T07:14:53.334Z,42.23
2019-03-24T07:17:22.080Z,35.73
2019-03-24T07:19:50.599Z,40.88
2019-03-24T07:22:19.466Z,37.03
2019-03-24T07:24:47.952Z,29.90
2019-03-24T07:27:16.486Z,35.88
2019-03-24T07:29:44.959Z,38.20
2019-03-24T07:32:13.434Z,35.15
2019-03-24T07:34:41.951Z,34.80
2019-03-24T07:37:10.468Z,38.42
2019-03-24T07:39:38.957Z,40.92
2019-03-24T07:42:07.472Z,40.17
2019-03-24T07:44:35.958Z,37.83
2019-03-24T07:47:07.503Z,43.58
2019-03-24T07:49:36.087Z,40.95
2019-03-24T07:52:04.638Z,42.73
2019-03-24T07:54:33.148Z,50.35
2019-03-24T07:57:01.632Z,39.38
2019-03-24T07:59:30.119Z,39.58
2019-03-24T08:01:59.683Z,42.13
2019-03-24T08:04:28.160Z,41.45
2019-03-24T08:06:56.716Z,38.95
2019-03-24T08:09:25.231Z,38.60
2019-03-24T08:11:53.705Z,38.90
2019-03-24T08:14:22.223Z,44.42
2019-03-24T08:16:50.706Z,38.28
2019-03-24T08:19:19.198Z,38.02
2019-03-24T08:21:47.684Z,46.58
2019-03-24T08:24:16.202Z,37.38
2019-03-24T08:26:44.790Z,34.73
2019-03-24T08:29:13.297Z,39.70
2019-03-24T08:31:41.810Z,34.25
2019-03-24T08:34:10.288Z,28.90
2019-03-24T08:36:38.853Z,29.92
2019-03-24T08:39:07.438Z,29.92
2019-03-24T08:41:36.020Z,31.02
2019-03-24T08:44:04.635Z,27.80
2019-03-24T08:46:33.154Z,31.60
2019-03-24T08:49:01.650Z,33.10
2019-03-24T08:51:30.124Z,31.45
2019-03-24T08:53:59.628Z,33.33
2019-03-24T08:56:28.130Z,33.65
2019-03-24T08:58:56.625Z,31.73
2019-03-24T09:01:25.224Z,31.97
2019-03-24T09:03:53.715Z,28.75
2019-03-24T09:06:22.206Z,26.73
2019-03-24T09:08:50.718Z,26.37
2019-03-24T09:11:19.213Z,24.45
2019-03-24T09:13:47.726Z,26.17
2019-03-24T09:16:16.253Z,26.05
2019-03-24T09:18:52.633Z,29.37
2019-03-24T09:21:14.960Z,27.73
2019-03-24T09:23:43.444Z,24.57
2019-03-24T09:26:11.956Z,22.10
2019-03-24T09:28:40.439Z,27.10
2019-03-24T09:31:08.974Z,59.38
2019-03-24T09:33:37.491Z,35.58
2019-03-24T09:36:06.045Z,38.88
2019-03-24T09:38:34.623Z,16.82
2019-03-24T09:41:03.106Z,35.63
2019-03-24T09:43:31.629Z,56.92
2019-03-24T09:46:00.148Z,19.80
2019-03-24T09:48:28.673Z,15.70
2019-03-24T09:50:57.227Z,19.15
2019-03-24T09:53:25.709Z,19.62
2019-03-24T09:55:54.233Z,20.75
2019-03-24T09:58:22.718Z,17.77
2019-03-24T10:00:51.218Z,23.98
2019-03-24T10:03:19.702Z,16.65
2019-03-24T10:05:48.261Z,15.55
2019-03-24T10:08:16.757Z,18.27
2019-03-24T10:10:45.224Z,13.30
2019-03-24T10:13:13.713Z,17.10
2019-03-24T10:15:42.235Z,15.70
2019-03-24T10:18:10.798Z,14.18
2019-03-24T10:20:39.287Z,15.15
2019-03-24T10:23:07.785Z,15.13
2019-03-24T10:25:36.270Z,15.18
2019-03-24T10:28:04.787Z,13.08
2019-03-24T10:30:33.269Z,18.65
2019-03-24T10:33:01.779Z,17.20
2019-03-24T10:35:30.269Z,16.15
2019-03-24T10:37:58.793Z,15.32
2019-03-24T10:40:28.824Z,14.83
2019-03-24T10:42:57.695Z,16.32
2019-03-24T10:45:26.186Z,13.13
2019-03-24T10:47:56.309Z,13.15
2019-03-24T10:50:24.825Z,13.65
2019-03-24T10:52:53.321Z,13.48
2019-03-24T10:55:21.805Z,17.45
2019-03-24T10:57:51.332Z,12.03
2019-03-24T11:00:22.907Z,12.20
2019-03-24T11:02:51.404Z,13.00
2019-03-24T11:05:19.889Z,12.82
2019-03-24T11:07:48.413Z,14.07
2019-03-24T11:10:16.964Z,11.20
2019-03-24T11:12:45.478Z,19.65
2019-03-24T11:15:14.064Z,13.90
2019-03-24T11:17:42.575Z,22.00
2019-03-24T11:20:11.339Z,10.98
2019-03-24T11:22:39.818Z,26.60
2019-03-24T11:25:09.469Z,16.70
2019-03-24T11:27:38.248Z,33.60
2019-03-24T11:30:14.267Z,38.02
2019-03-24T11:32:42.993Z,24.10
2019-03-24T11:35:12.646Z,15.68
2019-03-24T11:37:41.293Z,18.37
2019-03-24T11:40:11.509Z,57.88
2019-03-24T11:42:40.100Z,34.75
2019-03-24T11:45:10.237Z,13.85
2019-03-24T11:47:38.736Z,14.30
2019-03-24T11:50:08.461Z,32.23
2019-03-24T11:52:37.300Z,27.77
2019-03-24T11:55:10.407Z,20.57
2019-03-24T11:57:40.597Z,21.05
2019-03-24T12:00:12.158Z,12.50
2019-03-24T12:02:40.877Z,17.05
2019-03-24T12:05:09.929Z,18.73
2019-03-24T12:07:38.410Z,13.70
2019-03-24T12:10:09.944Z,19.50
2019-03-24T12:12:38.461Z,14.53
2019-03-24T12:15:07.979Z,12.10
2019-03-24T12:17:36.573Z,12.00
2019-03-24T12:20:08.277Z,12.07
2019-03-24T12:22:36.902Z,11.10
2019-03-24T12:25:06.135Z,11.83
2019-03-24T12:27:35.293Z,11.43
2019-03-24T12:30:05.542Z,12.65
2019-03-24T12:32:34.041Z,12.25
2019-03-24T12:35:02.556Z,11.83
2019-03-24T12:37:31.070Z,11.48
2019-03-24T12:39:59.564Z,11.05
2019-03-24T12:42:28.149Z,10.82
2019-03-24T12:44:56.651Z,13.50
2019-03-24T12:47:25.128Z,9.78
2019-03-24T12:49:53.683Z,11.53
2019-03-24T12:52:22.144Z,12.07
2019-03-24T12:54:50.628Z,11.18
2019-03-24T12:57:19.124Z,13.50
2019-03-24T12:59:47.666Z,11.28
2019-03-24T13:02:16.183Z,11.93
2019-03-24T13:04:44.677Z,14.47
2019-03-24T13:07:13.178Z,13.48
2019-03-24T13:09:41.720Z,11.70
2019-03-24T13:12:10.243Z,23.57
2019-03-24T13:14:38.723Z,19.27
2019-03-24T13:17:07.220Z,21.85
2019-03-24T13:19:36.266Z,26.57
2019-03-24T13:22:05.040Z,24.63
2019-03-24T13:24:33.552Z,27.48
2019-03-24T13:27:02.119Z,20.70
2019-03-24T13:29:30.604Z,28.75
2019-03-24T13:32:00.743Z,24.35
2019-03-24T13:34:29.226Z,23.12
2019-03-24T13:36:57.711Z,27.80
2019-03-24T13:39:26.233Z,36.13
2019-03-24T13:41:54.803Z,25.25
2019-03-24T13:44:23.385Z,20.85
2019-03-24T13:46:51.916Z,18.23
2019-03-24T13:49:20.405Z,39.60
2019-03-24T13:51:48.895Z,23.32
2019-03-24T13:54:17.393Z,32.50
2019-03-24T13:56:45.897Z,57.15
2019-03-24T13:59:14.445Z,41.23
2019-03-24T14:01:43.036Z,27.07
2019-03-24T14:04:11.522Z,57.62
2019-03-24T14:06:40.184Z,34.25
2019-03-24T14:09:10.046Z,31.57
2019-03-24T14:11:40.646Z,41.28
2019-03-24T14:14:09.146Z,77.65
2019-03-24T14:16:37.667Z,55.80
2019-03-24T14:19:06.225Z,57.65
2019-03-24T14:21:34.755Z,106.65
2019-03-24T14:24:03.149Z,40.67
2019-03-24T14:26:31.655Z,70.65
2019-03-24T14:29:00.160Z,82.80
2019-03-24T14:31:28.669Z,58.08
2019-03-24T14:33:57.155Z,47.62
2019-03-24T14:36:25.471Z,56.88
2019-03-24T14:38:54.057Z,29.05
2019-03-24T14:41:22.542Z,24.98
2019-03-24T14:43:51.043Z,58.85
2019-03-24T14:46:19.581Z,35.48
2019-03-24T14:48:48.097Z,48.73
2019-03-24T14:51:16.748Z,31.52
2019-03-24T14:53:45.265Z,32.05
2019-03-24T14:56:13.749Z,30.95
2019-03-24T14:58:42.259Z,27.67
2019-03-24T15:01:10.741Z,25.75
2019-03-24T15:03:39.259Z,27.32
2019-03-24T15:06:07.814Z,29.95
2019-03-24T15:08:36.300Z,39.48
2019-03-24T15:11:04.904Z,44.25
2019-03-24T15:13:33.388Z,25.72
2019-03-24T15:16:01.890Z,29.07
2019-03-24T15:18:30.413Z,25.15
2019-03-24T15:21:05.608Z,27.42
2019-03-24T15:23:30.754Z,26.20
2019-03-24T15:25:59.256Z,37.70
2019-03-24T15:28:27.750Z,36.33
2019-03-24T15:30:56.266Z,40.03
2019-03-24T15:33:24.752Z,28.87
2019-03-24T15:35:53.234Z,39.70
2019-03-24T15:38:21.731Z,51.25
2019-03-24T15:40:50.230Z,30.55
2019-03-24T15:43:18.822Z,39.38
2019-03-24T15:45:47.309Z,30.32
2019-03-24T15:48:15.823Z,36.20
2019-03-24T15:50:44.348Z,40.25
2019-03-24T15:53:12.820Z,35.03
2019-03-24T15:55:41.341Z,53.38
2019-03-24T15:58:09.936Z,47.48
2019-03-24T16:00:47.706Z,57.62
2019-03-24T16:03:16.553Z,52.73
2019-03-24T16:05:45.168Z,54.63
2019-03-24T16:08:13.851Z,41.35
2019-03-24T16:10:42.406Z,35.15
2019-03-24T16:13:10.981Z,56.42
2019-03-24T16:15:39.470Z,66.60
2019-03-24T16:18:08.025Z,37.63
2019-03-24T16:20:36.541Z,53.02
2019-03-24T16:23:05.112Z,67.42
2019-03-24T16:25:33.621Z,54.55
2019-03-24T16:28:02.184Z,56.40
2019-03-24T16:30:30.683Z,58.73
2019-03-24T16:32:59.255Z,56.20
2019-03-24T16:35:27.774Z,51.63
2019-03-24T16:37:56.270Z,64.82
2019-03-24T16:40:24.857Z,69.70
2019-03-24T16:42:53.350Z,65.08
2019-03-24T16:45:21.874Z,83.85
2019-03-24T16:47:50.706Z,80.07
2019-03-24T16:50:19.278Z,81.75
2019-03-24T16:52:47.781Z,85.42
2019-03-24T16:55:16.372Z,82.75
2019-03-24T16:57:44.859Z,89.32
2019-03-24T17:00:14.019Z,216.05
2019-03-24T17:02:42.509Z,115.70
2019-03-24T17:05:11.369Z,101.02
2019-03-24T17:07:39.942Z,91.42
2019-03-24T17:10:08.878Z,91.92
2019-03-24T17:12:37.373Z,86.42
2019-03-24T17:15:09.484Z,87.72
2019-03-24T17:17:38.039Z,86.72
2019-03-24T17:20:09.780Z,71.75
2019-03-24T17:22:40.665Z,149.47
2019-03-24T17:25:09.607Z,122.65
2019-03-24T17:27:38.134Z,65.15
2019-03-24T17:30:14.718Z,58.38
2019-03-24T17:32:45.170Z,57.43
2019-03-24T17:35:16.359Z,52.73
2019-03-24T17:37:53.604Z,74.90
2019-03-24T17:40:26.788Z,125.87
2019-03-24T17:43:04.126Z,162.45
2019-03-24T17:45:40.369Z,155.27
2019-03-24T17:48:14.459Z,62.05
2019-03-24T17:50:43.111Z,46.85
2019-03-24T17:53:19.269Z,51.33
2019-03-24T17:55:47.840Z,48.20
2019-03-24T17:58:27.499Z,56.88
2019-03-24T18:01:06.093Z,61.37
2019-03-24T18:03:35.577Z,55.10
2019-03-24T18:06:04.089Z,55.67
2019-03-24T18:08:32.571Z,58.25
2019-03-24T18:11:01.406Z,62.75
2019-03-24T18:13:29.902Z,60.38
2019-03-24T18:15:58.482Z,77.53
2019-03-24T18:18:26.974Z,65.25
2019-03-24T18:20:55.478Z,62.03
2019-03-24T18:23:24.047Z,58.80
2019-03-24T18:25:52.540Z,66.15
2019-03-24T18:28:21.590Z,83.97
2019-03-24T18:30:50.116Z,82.12
2019-03-24T18:33:18.685Z,139.07
2019-03-24T18:35:47.257Z,105.87
2019-03-24T18:38:15.813Z,68.28
2019-03-24T18:40:44.415Z,69.27
2019-03-24T18:43:12.903Z,75.52
2019-03-24T18:45:41.548Z,67.58
2019-03-24T18:48:10.066Z,58.70
2019-03-24T18:50:40.873Z,52.53
2019-03-24T18:53:09.400Z,51.30
2019-03-24T18:55:37.884Z,50.58
2019-03-24T18:58:06.446Z,118.05
2019-03-24T19:00:35.039Z,147.60
2019-03-24T19:03:03.531Z,94.97
2019-03-24T19:05:32.084Z,65.83
2019-03-24T19:08:00.631Z,61.50
2019-03-24T19:10:29.121Z,57.55
2019-03-24T19:12:57.648Z,58.35
2019-03-24T19:15:26.202Z,56.60
2019-03-24T19:17:54.697Z,64.25
2019-03-24T19:20:23.195Z,57.98
2019-03-24T19:22:53.278Z,68.65
2019-03-24T19:25:21.778Z,65.08
2019-03-24T19:27:51.280Z,80.50
2019-03-24T19:30:22.849Z,85.50
2019-03-24T19:32:51.480Z,82.92
2019-03-24T19:35:20.011Z,107.00
2019-03-24T19:37:49.469Z,82.40
2019-03-24T19:40:29.110Z,78.12
2019-03-24T19:42:57.831Z,72.92
2019-03-24T19:45:27.839Z,64.58
2019-03-24T19:47:56.682Z,60.45
2019-03-24T19:50:25.802Z,59.58
2019-03-24T19:52:54.341Z,66.50
2019-03-24T19:55:22.828Z,81.20
2019-03-24T19:57:51.345Z,92.47
2019-03-24T20:00:19.975Z,82.92
2019-03-24T20:02:48.474Z,78.45
2019-03-24T20:05:16.980Z,65.97
2019-03-24T20:07:48.269Z,64.97
2019-03-24T20:10:16.078Z,57.53
2019-03-24T20:12:44.583Z,77.67
2019-03-24T20:15:14.821Z,76.25
2019-03-24T20:17:43.389Z,89.00
2019-03-24T20:20:12.110Z,68.10
2019-03-24T20:22:40.634Z,70.03
2019-03-24T20:27:58.428Z,69.53
2019-03-24T20:30:26.989Z,63.58
2019-03-24T20:32:55.497Z,51.98
2019-03-24T20:35:24.014Z,51.40
2019-03-24T20:37:52.524Z,198.00
2019-03-24T20:40:21.085Z,262.60
2019-03-24T20:42:49.577Z,272.42
2019-03-24T20:45:18.156Z,229.97
2019-03-24T20:47:46.736Z,100.50
2019-03-24T20:50:15.761Z,80.12
2019-03-24T20:52:44.260Z,87.45
2019-03-24T20:55:13.124Z,84.62
2019-03-24T20:57:41.681Z,71.10
2019-03-24T21:00:11.486Z,74.80
2019-03-24T21:02:39.979Z,78.95
2019-03-24T21:05:10.945Z,70.78
2019-03-24T21:07:38.854Z,65.17
2019-03-24T21:10:07.777Z,86.78
2019-03-24T21:12:36.568Z,71.95
2019-03-24T21:15:07.458Z,60.40
2019-03-24T21:17:36.128Z,69.40
2019-03-24T21:20:07.070Z,76.37
2019-03-24T21:22:35.641Z,60.75
2019-03-24T21:25:05.586Z,55.52
2019-03-24T21:27:34.077Z,62.33
2019-03-24T21:30:02.576Z,59.70
2019-03-24T21:32:31.058Z,69.30
2019-03-24T21:34:59.577Z,74.27
2019-03-24T21:37:28.076Z,80.87
2019-03-24T21:39:56.608Z,72.22
2019-03-24T21:42:25.095Z,57.08
2019-03-24T21:44:53.590Z,58.65
2019-03-24T21:47:22.120Z,55.30
2019-03-24T21:49:53.330Z,65.60
2019-03-24T21:52:21.954Z,62.30
2019-03-24T21:54:50.430Z,66.12
2019-03-24T21:57:18.932Z,65.57
2019-03-24T21:59:47.453Z,56.37
2019-03-24T22:02:15.989Z,58.45
2019-03-24T22:04:44.453Z,59.50
2019-03-24T22:07:12.970Z,53.33
2019-03-24T22:09:41.521Z,45.85
2019-03-24T22:12:10.002Z,40.10
2019-03-24T22:14:41.184Z,42.40
2019-03-24T22:17:09.686Z,47.40
2019-03-24T22:19:38.764Z,38.58
2019-03-24T22:22:07.347Z,38.00
2019-03-24T22:24:35.827Z,39.42
2019-03-24T22:27:04.360Z,41.63
2019-03-24T22:29:32.847Z,37.50
2019-03-24T22:32:01.323Z,34.83
2019-03-24T22:34:29.915Z,41.30
2019-03-24T22:36:58.394Z,44.10
2019-03-24T22:39:26.986Z,40.52
2019-03-24T22:41:55.460Z,38.65
2019-03-24T22:44:24.004Z,39.78
2019-03-24T22:46:52.491Z,38.67
2019-03-24T22:49:20.976Z,38.10
2019-03-24T22:51:49.490Z,37.63
2019-03-24T22:54:18.012Z,37.05
2019-03-24T22:56:46.596Z,38.48
2019-03-24T22:59:15.249Z,32.30
2019-03-24T23:01:43.851Z,34.25
2019-03-24T23:04:12.329Z,33.20
2019-03-24T23:06:40.977Z,34.15
2019-03-24T23:09:10.267Z,30.43
2019-03-24T23:11:38.780Z,35.08
2019-03-24T23:14:07.396Z,35.28
2019-03-24T23:16:36.053Z,38.17
2019-03-24T23:19:05.179Z,36.95
2019-03-24T23:21:33.737Z,33.35
2019-03-24T23:24:02.228Z,41.98
2019-03-24T23:26:30.736Z,34.15
2019-03-24T23:28:59.212Z,35.23
2019-03-24T23:31:27.825Z,36.08
2019-03-24T23:33:56.306Z,37.53
2019-03-24T23:36:24.813Z,33.23
2019-03-24T23:38:53.296Z,36.40
2019-03-24T23:41:21.783Z,39.73
2019-03-24T23:43:50.343Z,40.55
2019-03-24T23:46:18.857Z,41.23
2019-03-24T23:48:47.354Z,41.77
2019-03-24T23:51:16.285Z,44.18
2019-03-24T23:53:44.772Z,43.13
2019-03-24T23:56:13.291Z,42.35
2019-03-24T23:58:41.800Z,40.92
